Time;durP1;ratioP1;P1;durP2;ratioP2;P2;SDS_P1;SDS_P2;PMS_P1;PMS_P2;Temp;Humidity;BMP_temperature;BMP_pressure;BME280_temperature;BME280_humidity;BME280_pressure;Samples;Min_cycle;Max_cycle;Signal;HPM_P1;HPM_P2
2022/08/09 00:01:38;;;;;;;6.63;1.40;;;;;;;12.73;52.71;102839.56;5020808;28;20035;-76
2022/08/09 00:04:04;;;;;;;1.48;0.68;;;;;;;12.63;52.98;102838.84;5021917;28;20025;-76
2022/08/09 00:06:30;;;;;;;1.40;0.85;;;;;;;12.62;52.57;102834.47;5020096;28;20467;-76
2022/08/09 00:08:55;;;;;;;2.22;0.70;;;;;;;12.62;52.55;102841.50;5020447;28;20128;-78
2022/08/09 00:11:22;;;;;;;1.83;0.82;;;;;;;12.63;52.58;102838.84;5018838;28;20038;-78
2022/08/09 00:13:49;;;;;;;1.13;0.73;;;;;;;12.65;52.86;102839.69;5001480;28;20128;-77
2022/08/09 00:16:14;;;;;;;1.65;0.95;;;;;;;12.64;52.87;102839.69;5006031;28;20083;-76
2022/08/09 00:18:40;;;;;;;3.25;1.23;;;;;;;12.68;52.40;102834.38;5003112;28;20049;-77
2022/08/09 00:21:07;;;;;;;1.52;0.77;;;;;;;12.61;52.33;102827.50;5006646;28;20104;-78
2022/08/09 00:23:33;;;;;;;2.17;1.40;;;;;;;12.63;52.35;102830.97;5001497;28;20073;-77
2022/08/09 00:25:59;;;;;;;6.35;1.38;;;;;;;12.58;52.68;102830.19;5013589;28;20099;-77
2022/08/09 00:28:24;;;;;;;1.58;0.80;;;;;;;12.52;53.02;102830.31;5022324;28;20113;-77
2022/08/09 00:30:51;;;;;;;2.33;1.10;;;;;;;12.49;52.92;102832.94;5019427;28;20102;-77
2022/08/09 00:33:16;;;;;;;2.08;0.82;;;;;;;12.51;53.26;102839.03;5021646;28;20033;-77
2022/08/09 00:35:42;;;;;;;3.60;1.13;;;;;;;12.58;52.97;102840.69;5015584;28;20056;-76
2022/08/09 00:38:11;;;;;;;3.30;1.15;;;;;;;12.61;52.98;102832.75;5021771;28;20045;-75
2022/08/09 00:40:41;;;;;;;2.92;1.20;;;;;;;12.57;52.94;102831.06;5018727;28;20567;-76
2022/08/09 00:43:07;;;;;;;2.25;1.10;;;;;;;12.47;53.29;102838.25;5004269;28;20124;-75
2022/08/09 00:45:33;;;;;;;2.60;1.05;;;;;;;12.50;53.18;102838.19;5018806;28;20175;-77
2022/08/09 00:47:59;;;;;;;1.67;0.82;;;;;;;12.41;53.54;102843.59;5028961;28;20515;-78
2022/08/09 00:50:25;;;;;;;3.42;1.30;;;;;;;12.32;53.31;102841.13;5020202;28;20044;-76
2022/08/09 00:52:54;;;;;;;1.95;1.20;;;;;;;12.35;53.41;102842.81;5019256;28;20042;-77
2022/08/09 00:55:20;;;;;;;2.63;1.80;;;;;;;12.27;53.47;102846.44;5015983;28;20741;-76
2022/08/09 00:57:45;;;;;;;2.25;0.75;;;;;;;12.35;53.01;102845.44;5019457;28;20117;-77
2022/08/09 01:00:12;;;;;;;1.40;0.77;;;;;;;12.29;53.20;102843.81;5018237;28;20037;-80
2022/08/09 01:02:49;;;;;;;1.55;0.50;;;;;;;12.20;53.07;102846.53;5026663;28;20038;-75
2022/08/09 01:05:53;;;;;;;1.48;1.05;;;;;;;12.24;53.05;102843.84;5013369;28;20025;-77
2022/08/09 01:08:28;;;;;;;1.83;1.27;;;;;;;12.28;52.99;102840.28;5013118;28;20412;-76
2022/08/09 01:11:06;;;;;;;1.05;0.47;;;;;;;12.20;52.87;102842.19;5017106;28;20029;-77
2022/08/09 01:13:39;;;;;;;3.17;1.30;;;;;;;12.11;53.06;102839.72;5010732;28;20121;-78
2022/08/09 01:16:05;;;;;;;2.22;1.08;;;;;;;12.10;53.07;102845.81;5015445;28;20033;-76
2022/08/09 01:18:33;;;;;;;1.33;0.80;;;;;;;12.00;53.03;102845.09;5016477;28;20053;-76
2022/08/09 01:21:17;;;;;;;1.67;0.73;;;;;;;12.01;53.05;102840.72;5020803;28;20056;-77
2022/08/09 01:23:59;;;;;;;1.10;0.52;;;;;;;11.96;52.90;102839.94;5027143;28;20049;-77
2022/08/09 01:26:48;;;;;;;1.30;0.65;;;;;;;11.91;52.78;102845.25;5013935;28;20033;-77
2022/08/09 01:29:15;;;;;;;3.13;0.60;;;;;;;11.88;52.96;102842.66;5015856;28;20700;-77
2022/08/09 01:31:43;;;;;;;2.35;1.02;;;;;;;11.91;53.10;102844.34;5026562;28;20041;-76
2022/08/09 01:34:13;;;;;;;1.92;0.98;;;;;;;12.02;53.11;102847.69;5020061;28;20052;-76
2022/08/09 01:36:42;;;;;;;1.98;1.17;;;;;;;12.04;52.69;102848.53;5016276;28;20030;-76
2022/08/09 01:39:08;;;;;;;2.70;1.00;;;;;;;11.92;52.93;102852.19;5020164;28;20103;-76
2022/08/09 01:41:36;;;;;;;2.15;0.77;;;;;;;11.87;53.01;102852.28;5015108;28;20029;-79
2022/08/09 01:44:04;;;;;;;2.35;1.02;;;;;;;11.79;52.77;102846.25;5014147;28;20030;-79
2022/08/09 01:46:34;;;;;;;0.90;0.57;;;;;;;11.78;52.86;102851.53;5013330;28;20038;-77
2022/08/09 01:49:10;;;;;;;4.30;0.98;;;;;;;11.76;52.90;102837.56;5027489;28;20447;-76
2022/08/09 01:51:38;;;;;;;2.85;0.70;;;;;;;11.74;52.95;102841.94;5012799;28;20065;-77
2022/08/09 01:54:05;;;;;;;1.85;1.13;;;;;;;11.81;52.86;102849.72;4999523;28;20029;-76
2022/08/09 01:56:34;;;;;;;3.72;0.80;;;;;;;11.81;52.91;102844.50;5012748;28;20107;-77
2022/08/09 01:59:02;;;;;;;1.52;0.73;;;;;;;11.75;52.81;102856.78;5027237;28;20601;-78
2022/08/09 02:01:29;;;;;;;2.65;1.20;;;;;;;11.80;52.92;102853.25;5013007;28;20061;-74
2022/08/09 02:03:57;;;;;;;1.63;1.00;;;;;;;11.79;52.71;102856.75;5012463;28;20037;-75
2022/08/09 02:09:11;;;;;;;2.58;1.13;;;;;;;11.77;52.82;102860.25;5030300;28;20056;-77
2022/08/09 02:11:38;;;;;;;2.95;1.10;;;;;;;11.71;52.78;102863.81;5000297;28;20029;-77
2022/08/09 02:14:06;;;;;;;3.35;0.57;;;;;;;11.66;52.86;102863.88;4985528;28;20048;-76
2022/08/09 02:16:35;;;;;;;2.30;1.02;;;;;;;11.58;53.27;102857.88;4996867;28;20058;-75
2022/08/09 02:19:02;;;;;;;2.47;0.73;;;;;;;11.60;53.38;102857.84;5031568;28;20044;-76
2022/08/09 02:21:32;;;;;;;3.13;1.25;;;;;;;11.58;53.88;102860.50;5016499;28;20029;-76
2022/08/09 02:24:01;;;;;;;1.70;1.23;;;;;;;11.58;54.05;102852.63;5011950;28;20459;-76
2022/08/09 02:26:31;;;;;;;2.83;1.02;;;;;;;11.62;53.44;102856.94;5019886;28;20029;-76
2022/08/09 02:29:00;;;;;;;2.00;1.33;;;;;;;11.66;53.35;102860.38;5010664;28;20091;-76
2022/08/09 02:31:38;;;;;;;3.33;1.13;;;;;;;11.60;53.68;102853.47;5020633;28;20038;-76
2022/08/09 02:34:13;;;;;;;2.17;0.65;;;;;;;11.57;53.44;102852.63;5026966;28;20053;-76
2022/08/09 02:36:42;;;;;;;2.55;0.75;;;;;;;11.63;53.26;102855.19;5017984;28;20812;-76
2022/08/09 02:39:14;;;;;;;2.85;0.85;;;;;;;11.61;53.18;102851.72;5018549;28;20033;-75
2022/08/09 02:41:56;;;;;;;2.67;0.90;;;;;;;11.57;53.39;102850.03;5002853;28;20865;-76
2022/08/09 02:44:26;;;;;;;1.33;0.52;;;;;;;11.53;53.60;102853.56;5018330;28;20033;-76
2022/08/09 02:46:56;;;;;;;1.20;0.70;;;;;;;11.54;53.60;102850.06;5010895;28;20073;-76
2022/08/09 02:49:22;;;;;;;1.70;0.90;;;;;;;11.54;53.32;102844.84;5027622;28;20376;-76
2022/08/09 02:51:54;;;;;;;3.05;1.38;;;;;;;11.52;53.80;102849.22;5013077;28;20036;-76
2022/08/09 02:54:22;;;;;;;1.67;0.75;;;;;;;11.49;54.15;102851.88;5016739;28;20101;-75
2022/08/09 02:56:50;;;;;;;3.58;1.02;;;;;;;11.51;53.63;102853.59;5015931;28;20038;-77
2022/08/09 02:59:17;;;;;;;1.67;0.88;;;;;;;11.43;53.80;102847.59;5016883;28;20112;-78
2022/08/09 03:01:44;;;;;;;3.08;1.17;;;;;;;11.35;54.08;102849.41;5027273;28;20518;-77
2022/08/09 03:04:11;;;;;;;2.80;1.30;;;;;;;11.24;54.40;102847.81;5010684;28;20041;-78
2022/08/09 03:06:39;;;;;;;1.75;0.65;;;;;;;11.24;54.45;102849.53;5012401;28;20034;-78
2022/08/09 03:09:06;;;;;;;2.90;0.90;;;;;;;11.33;53.96;102843.31;5019392;28;20026;-78
2022/08/09 03:11:32;;;;;;;2.17;1.05;;;;;;;11.45;53.73;102841.44;5014642;28;20113;-77
2022/08/09 03:14:00;;;;;;;2.08;1.02;;;;;;;11.40;53.58;102838.00;5016756;28;20167;-77
2022/08/09 03:16:26;;;;;;;2.45;0.90;;;;;;;11.31;53.70;102843.38;5012496;28;20971;-76
2022/08/09 03:18:53;;;;;;;1.67;0.90;;;;;;;11.36;53.63;102840.69;5010562;28;20053;-77
2022/08/09 03:21:21;;;;;;;2.72;1.10;;;;;;;11.43;53.79;102852.81;5018553;28;20033;-77
2022/08/09 03:23:48;;;;;;;1.90;0.60;;;;;;;11.46;53.76;102852.75;4992247;28;20041;-77
2022/08/09 03:26:15;;;;;;;4.03;1.38;;;;;;;11.43;53.88;102851.06;4995788;28;20404;-78
2022/08/09 03:28:47;;;;;;;2.03;1.15;;;;;;;11.41;54.15;102844.09;5013316;28;20057;-77
2022/08/09 03:31:14;;;;;;;1.25;0.55;;;;;;;11.39;53.97;102844.13;5002588;28;20116;-76
2022/08/09 03:33:41;;;;;;;3.38;1.70;;;;;;;11.46;53.60;102845.81;5031023;28;20141;-77
2022/08/09 03:36:09;;;;;;;3.38;1.00;;;;;;;11.44;53.64;102844.94;5005798;28;20279;-77
2022/08/09 03:38:40;;;;;;;2.05;1.15;;;;;;;11.39;53.33;102841.50;5018779;28;20042;-77
2022/08/09 03:41:06;;;;;;;1.98;0.98;;;;;;;11.25;53.50;102840.81;5028459;28;20037;-78
2022/08/09 03:43:32;;;;;;;1.73;0.57;;;;;;;11.23;53.51;102847.81;5022113;28;20521;-77
2022/08/09 03:45:59;;;;;;;1.77;0.90;;;;;;;11.29;53.65;102845.13;5020302;28;20033;-78
2022/08/09 03:48:24;;;;;;;1.38;0.57;;;;;;;11.27;53.79;102846.91;5015469;28;20052;-77
2022/08/09 03:50:52;;;;;;;1.25;0.70;;;;;;;11.27;53.78;102838.19;5013770;28;20014;-76
2022/08/09 03:53:19;;;;;;;3.67;1.13;;;;;;;11.32;53.62;102850.31;5003523;28;20053;-77
2022/08/09 03:55:45;;;;;;;2.70;1.33;;;;;;;11.43;53.78;102840.59;5004572;28;20046;-77
2022/08/09 03:58:11;;;;;;;2.25;1.73;;;;;;;11.43;53.93;102844.97;5012992;28;20041;-78
2022/08/09 04:00:38;;;;;;;2.42;1.42;;;;;;;11.45;53.86;102846.66;4998814;28;20037;-77
2022/08/09 04:03:04;;;;;;;2.58;1.25;;;;;;;11.43;54.08;102843.19;5003502;28;20077;-77
2022/08/09 04:05:29;;;;;;;1.77;1.05;;;;;;;11.44;53.78;102846.69;5005075;28;20566;-77
2022/08/09 04:07:55;;;;;;;1.90;1.05;;;;;;;11.42;53.71;102849.34;5001215;28;20046;-77
2022/08/09 04:10:21;;;;;;;4.53;1.23;;;;;;;11.41;53.91;102854.59;5018664;28;20109;-77
2022/08/09 04:12:50;;;;;;;1.25;0.75;;;;;;;11.40;53.74;102863.34;5015615;28;20054;-76
2022/08/09 04:15:17;;;;;;;1.90;1.40;;;;;;;11.44;53.62;102859.78;4995766;28;20260;-77
2022/08/09 04:17:43;;;;;;;2.58;1.42;;;;;;;11.51;53.41;102861.47;5012626;28;20400;-77
2022/08/09 04:20:12;;;;;;;2.45;1.17;;;;;;;11.54;53.19;102861.41;5000806;28;20121;-76
2022/08/09 04:22:39;;;;;;;2.40;0.77;;;;;;;11.50;53.47;102869.31;5028432;28;20310;-76
2022/08/09 04:25:06;;;;;;;2.00;1.20;;;;;;;11.56;53.03;102864.00;4998592;28;20084;-77
2022/08/09 04:27:31;;;;;;;2.40;1.10;;;;;;;11.57;53.08;102861.34;5020879;28;20392;-77
2022/08/09 04:29:57;;;;;;;1.27;0.75;;;;;;;11.56;53.04;102859.63;5002456;28;20037;-77
2022/08/09 04:32:23;;;;;;;1.38;0.70;;;;;;;11.52;53.06;102863.19;5013282;28;20079;-78
2022/08/09 04:34:49;;;;;;;1.60;1.02;;;;;;;11.58;53.34;102868.34;5015199;28;20496;-78
2022/08/09 04:37:15;;;;;;;1.33;0.88;;;;;;;11.64;53.29;102867.38;5014424;28;20069;-77
2022/08/09 04:39:40;;;;;;;1.58;0.70;;;;;;;11.74;53.23;102861.16;5020478;28;20056;-76
2022/08/09 04:42:06;;;;;;;2.05;1.00;;;;;;;11.84;53.24;102860.19;5022492;28;20059;-75
2022/08/09 04:44:31;;;;;;;1.63;0.95;;;;;;;11.85;53.52;102872.38;5019951;28;20040;-77
2022/08/09 04:46:57;;;;;;;6.18;2.10;;;;;;;11.95;53.30;102873.13;5030603;28;20053;-77
2022/08/09 04:49:23;;;;;;;5.70;2.17;;;;;;;12.04;53.19;102872.13;5019229;28;20112;-77
2022/08/09 04:51:49;;;;;;;2.53;1.90;;;;;;;12.14;53.32;102878.13;5014955;28;20036;-77
2022/08/09 04:54:14;;;;;;;4.38;1.70;;;;;;;12.20;53.32;102878.00;5019915;28;20026;-77
2022/08/09 04:56:40;;;;;;;2.00;1.25;;;;;;;12.31;53.14;102880.47;5011295;28;20507;-76
2022/08/09 04:59:06;;;;;;;2.88;1.92;;;;;;;12.37;53.12;102886.47;5015881;28;20803;-77
2022/08/09 05:01:31;;;;;;;1.58;1.00;;;;;;;12.43;53.14;102886.38;4999330;28;20040;-78
2022/08/09 05:03:56;;;;;;;3.13;1.02;;;;;;;12.52;52.92;102882.75;5021997;28;20033;-76
2022/08/09 05:06:22;;;;;;;1.73;0.90;;;;;;;12.63;53.12;102890.47;5013527;28;20044;-76
2022/08/09 05:08:48;;;;;;;1.98;1.08;;;;;;;12.78;53.15;102886.72;5003451;28;20768;-76
2022/08/09 05:11:13;;;;;;;2.38;0.98;;;;;;;13.16;53.48;102893.94;5014764;28;20033;-76
2022/08/09 05:13:39;;;;;;;2.72;1.08;;;;;;;13.77;52.13;102897.09;5004333;28;20144;-76
2022/08/09 05:16:06;;;;;;;3.50;1.05;;;;;;;13.98;51.73;102894.91;5019624;28;20031;-76
2022/08/09 05:18:32;;;;;;;1.52;0.65;;;;;;;14.06;51.71;102887.72;5017252;28;20075;-77
2022/08/09 05:20:59;;;;;;;1.58;0.77;;;;;;;14.31;51.50;102901.16;5011129;28;20124;-78
2022/08/09 05:23:24;;;;;;;1.42;0.80;;;;;;;14.39;51.34;102901.84;5003496;28;20240;-75
2022/08/09 05:25:50;;;;;;;2.85;0.68;;;;;;;14.58;51.17;102898.78;5020693;28;20041;-76
2022/08/09 05:28:17;;;;;;;1.27;0.90;;;;;;;14.75;51.29;102897.44;5003341;28;20045;-77
2022/08/09 05:30:43;;;;;;;4.10;0.95;;;;;;;14.88;50.50;102899.75;5013307;28;20026;-76
2022/08/09 05:33:09;;;;;;;2.17;0.60;;;;;;;15.32;50.77;102895.09;5001680;28;20069;-78
2022/08/09 05:35:34;;;;;;;1.75;1.13;;;;;;;17.28;47.05;102902.94;5016929;28;20114;-76
2022/08/09 05:38:00;;;;;;;1.27;0.70;;;;;;;18.31;44.72;102894.56;5014752;28;20048;-79
2022/08/09 05:40:27;;;;;;;1.50;0.40;;;;;;;19.31;42.20;102890.31;5011946;28;20037;-76
2022/08/09 05:42:56;;;;;;;1.10;0.50;;;;;;;20.77;38.88;102890.38;5013830;28;20080;-75
2022/08/09 05:45:22;;;;;;;2.60;0.68;;;;;;;21.14;37.77;102889.34;5015571;28;20048;-75
2022/08/09 05:47:48;;;;;;;12.48;0.60;;;;;;;21.58;35.85;102887.88;5017635;28;20098;-77
2022/08/09 05:50:13;;;;;;;0.85;0.30;;;;;;;22.50;34.75;102887.97;5012383;28;20029;-75
2022/08/09 05:52:40;;;;;;;0.90;0.70;;;;;;;22.70;33.44;102889.47;5014174;28;20578;-77
2022/08/09 05:55:09;;;;;;;0.93;0.50;;;;;;;23.21;33.24;102889.88;5016678;28;20034;-76
2022/08/09 05:57:36;;;;;;;1.13;0.43;;;;;;;23.54;31.73;102900.25;5011190;28;20042;-77
2022/08/09 06:00:04;;;;;;;1.98;0.70;;;;;;;23.59;31.78;102898.16;5014154;28;20276;-77
2022/08/09 06:02:37;;;;;;;1.17;0.30;;;;;;;24.20;30.20;102898.63;5012351;28;20508;-79
2022/08/09 06:05:02;;;;;;;0.65;0.30;;;;;;;25.66;28.46;102901.91;5029885;28;20037;-79
2022/08/09 06:07:28;;;;;;;2.42;0.40;;;;;;;26.44;28.06;102897.00;5017192;28;20045;-78
2022/08/09 06:09:54;;;;;;;2.80;0.40;;;;;;;27.53;26.04;102891.97;5017196;28;20049;-78
2022/08/09 06:12:21;;;;;;;1.30;0.50;;;;;;;27.36;25.88;102891.63;5010774;28;20124;-76
2022/08/09 06:14:46;;;;;;;0.60;0.30;;;;;;;27.54;26.65;102895.53;5010964;28;20065;-76
2022/08/09 06:17:12;;;;;;;0.70;0.20;;;;;;;28.11;25.44;102896.22;5011572;28;20513;-76
2022/08/09 06:19:37;;;;;;;2.80;0.20;;;;;;;28.30;25.01;102896.41;5009868;28;20528;-74
2022/08/09 06:22:04;;;;;;;0.50;0.20;;;;;;;26.84;26.29;102904.69;4995011;28;20046;-76
2022/08/09 06:24:30;;;;;;;0.35;0.20;;;;;;;26.40;27.23;102904.47;5008153;28;20116;-75
2022/08/09 06:26:55;;;;;;;0.28;0.10;;;;;;;27.19;25.67;102904.59;5013998;28;20042;-76
2022/08/09 06:29:21;;;;;;;0.30;0.17;;;;;;;28.21;24.50;102910.63;5014228;28;20306;-75
2022/08/09 06:31:46;;;;;;;0.38;0.20;;;;;;;27.84;25.50;102908.28;5012111;28;20095;-75
2022/08/09 06:34:12;;;;;;;0.30;0.10;;;;;;;28.00;24.69;102905.19;5014016;28;20113;-76
2022/08/09 06:36:37;;;;;;;1.67;0.10;;;;;;;29.20;23.55;102907.56;5010399;28;20033;-75
2022/08/09 06:39:03;;;;;;;0.25;0.10;;;;;;;29.76;22.70;102910.53;5015260;28;20109;-75
2022/08/09 06:41:29;;;;;;;0.40;0.15;;;;;;;28.97;23.87;102907.72;5010679;28;20040;-75
2022/08/09 06:43:55;;;;;;;1.23;0.20;;;;;;;29.84;21.96;102907.16;5014949;28;20037;-76
2022/08/09 06:46:20;;;;;;;1.58;0.13;;;;;;;28.08;24.27;102909.94;5017028;28;20419;-76
2022/08/09 06:48:46;;;;;;;0.20;0.10;;;;;;;26.58;25.43;102918.31;5012415;28;20044;-76
2022/08/09 06:51:12;;;;;;;0.95;0.13;;;;;;;24.11;29.83;102928.63;5012739;28;20033;-75
2022/08/09 06:53:38;;;;;;;0.63;0.20;;;;;;;25.37;28.13;102936.09;5008932;28;20054;-76
2022/08/09 06:56:05;;;;;;;1.35;0.43;;;;;;;27.40;25.25;102939.59;5015448;28;20033;-75
2022/08/09 06:58:31;;;;;;;0.30;0.10;;;;;;;28.69;23.04;102946.94;5016320;28;20080;-74
2022/08/09 07:00:56;;;;;;;1.13;0.20;;;;;;;28.54;23.87;102954.44;4999723;28;20447;-75
2022/08/09 07:03:23;;;;;;;0.70;0.20;;;;;;;26.83;24.83;102956.63;5014143;28;20092;-75
2022/08/09 07:05:49;;;;;;;1.50;0.47;;;;;;;27.08;24.84;102945.69;5017227;28;20069;-74
2022/08/09 07:08:16;;;;;;;3.38;0.13;;;;;;;27.48;24.80;102950.59;5011792;28;20048;-75
2022/08/09 07:10:42;;;;;;;0.93;0.10;;;;;;;28.67;23.57;102955.13;5018370;28;20041;-75
2022/08/09 07:13:08;;;;;;;3.60;0.52;;;;;;;26.22;25.95;102965.69;5017130;28;20049;-76
2022/08/09 07:15:33;;;;;;;2.10;0.20;;;;;;;26.16;25.68;102966.13;5014970;28;20391;-76
2022/08/09 07:17:59;;;;;;;2.05;0.20;;;;;;;24.20;28.58;102965.41;5009645;28;20579;-75
2022/08/09 07:20:25;;;;;;;2.92;0.38;;;;;;;24.70;27.92;102962.16;5029709;28;20687;-75
2022/08/09 07:22:51;;;;;;;1.58;0.20;;;;;;;26.20;26.37;102962.25;5007166;28;20133;-76
2022/08/09 07:25:17;;;;;;;0.30;0.13;;;;;;;26.85;25.71;102960.06;5014628;28;20056;-76
2022/08/09 07:27:43;;;;;;;1.00;0.10;;;;;;;27.36;23.98;102956.91;5027119;28;20084;-76
2022/08/09 07:30:12;;;;;;;0.10;0.10;;;;;;;26.25;25.21;102960.06;5019031;28;20061;-77
2022/08/09 07:32:38;;;;;;;2.47;0.10;;;;;;;26.53;25.08;102960.66;5013429;28;20144;-77
2022/08/09 07:35:05;;;;;;;1.45;0.10;;;;;;;26.80;25.08;102954.19;5011644;28;20108;-77
2022/08/09 07:37:31;;;;;;;0.88;0.15;;;;;;;27.61;23.25;102950.44;5024524;28;20045;-76
2022/08/09 07:39:57;;;;;;;2.00;0.15;;;;;;;26.20;25.14;102956.91;5016394;28;20022;-77
2022/08/09 07:42:22;;;;;;;0.28;0.10;;;;;;;26.13;25.24;102960.97;5013853;28;20045;-76
2022/08/09 07:44:48;;;;;;;1.25;0.17;;;;;;;25.47;25.58;102961.25;5017026;28;20129;-76
2022/08/09 07:47:14;;;;;;;0.20;0.10;;;;;;;27.83;22.65;102960.34;5001213;28;20458;-75
2022/08/09 07:49:39;;;;;;;2.22;0.17;;;;;;;29.08;20.65;102958.78;5002067;28;20633;-74
2022/08/09 07:52:05;;;;;;;1.50;0.10;;;;;;;29.21;21.14;102963.09;5013285;28;20096;-75
2022/08/09 07:54:30;;;;;;;3.92;0.10;;;;;;;29.79;20.22;102974.06;5010627;28;20124;-75
2022/08/09 07:56:56;;;;;;;0.40;0.10;;;;;;;29.99;19.36;102973.09;5016860;28;20049;-73
2022/08/09 07:59:22;;;;;;;0.52;0.22;;;;;;;31.58;17.82;102964.44;5012813;28;20053;-74
2022/08/09 08:01:47;;;;;;;0.73;0.20;;;;;;;30.76;18.54;102967.88;5015057;28;20120;-75
2022/08/09 08:04:13;;;;;;;1.10;0.40;;;;;;;29.34;20.56;102964.56;4994779;28;20037;-77
2022/08/09 08:06:38;;;;;;;1.08;0.10;;;;;;;30.04;19.56;102963.75;4999299;28;20033;-77
2022/08/09 08:09:04;;;;;;;0.38;0.10;;;;;;;29.90;19.91;102975.78;5016484;28;20671;-75
2022/08/09 08:11:30;;;;;;;0.38;0.20;;;;;;;30.61;18.74;102972.88;5013359;28;20097;-74
2022/08/09 08:13:55;;;;;;;0.63;0.15;;;;;;;29.70;20.53;102958.75;5009042;28;20141;-75
2022/08/09 08:16:20;;;;;;;0.60;0.20;;;;;;;29.84;20.67;102952.97;5016517;28;20045;-75
2022/08/09 08:18:46;;;;;;;0.52;0.20;;;;;;;30.54;19.64;102959.06;5026156;28;20092;-74
2022/08/09 08:21:12;;;;;;;1.52;0.30;;;;;;;30.05;19.93;102962.75;5018710;28;20087;-76
2022/08/09 08:23:38;;;;;;;0.80;0.15;;;;;;;31.14;19.69;102966.06;5016326;28;20053;-76
2022/08/09 08:26:04;;;;;;;0.32;0.20;;;;;;;30.77;19.53;102962.31;5013441;28;20075;-75
2022/08/09 08:28:30;;;;;;;1.65;0.30;;;;;;;31.06;19.70;102968.66;5015411;28;20478;-76
2022/08/09 08:30:56;;;;;;;0.43;0.20;;;;;;;31.15;18.88;102968.59;5000074;28;20030;-76
2022/08/09 08:33:22;;;;;;;0.43;0.20;;;;;;;30.83;19.36;102968.13;5017481;28;20491;-75
2022/08/09 08:35:48;;;;;;;0.63;0.20;;;;;;;31.77;18.12;102970.72;5017277;28;20037;-76
2022/08/09 08:38:13;;;;;;;0.95;0.25;;;;;;;31.76;19.12;102977.13;5013791;28;20120;-76
2022/08/09 08:40:39;;;;;;;3.95;0.20;;;;;;;32.01;18.74;102975.56;4999572;28;20040;-74
2022/08/09 08:43:05;;;;;;;1.85;0.30;;;;;;;32.39;18.48;102974.41;5012135;28;20504;-75
2022/08/09 08:45:41;;;;;;;1.48;0.43;;;;;;;32.17;18.05;102975.72;5001572;28;20400;-75
2022/08/09 08:48:08;;;;;;;0.98;0.20;;;;;;;31.89;18.78;102982.16;5017024;28;20057;-74
2022/08/09 08:50:33;;;;;;;0.50;0.20;;;;;;;30.74;19.43;102980.66;4999016;28;20033;-74
2022/08/09 08:53:00;;;;;;;0.80;0.40;;;;;;;31.24;19.10;102983.06;5009387;28;20041;-74
2022/08/09 08:55:26;;;;;;;0.68;0.28;;;;;;;30.15;19.94;102979.81;5013589;28;20728;-76
2022/08/09 08:57:54;;;;;;;1.33;0.40;;;;;;;30.37;20.51;102979.53;5010300;28;20179;-75
2022/08/09 09:00:20;;;;;;;1.23;0.10;;;;;;;30.47;19.85;102978.69;5011186;28;20064;-77
2022/08/09 09:02:47;;;;;;;1.13;0.13;;;;;;;30.17;20.15;102983.22;5012708;28;20081;-76
2022/08/09 09:05:18;;;;;;;0.60;0.20;;;;;;;30.59;19.68;102972.16;5010774;28;20499;-75
2022/08/09 09:07:49;;;;;;;0.82;0.10;;;;;;;30.16;20.18;102976.13;5013043;28;20038;-75
2022/08/09 09:10:16;;;;;;;1.33;0.30;;;;;;;30.20;19.87;102982.97;5009791;28;20144;-76
2022/08/09 09:12:43;;;;;;;1.83;0.50;;;;;;;29.93;20.81;102979.06;5007473;28;21000;-75
2022/08/09 09:15:09;;;;;;;0.88;0.20;;;;;;;29.35;20.84;102970.81;4998902;28;20038;-76
2022/08/09 09:17:36;;;;;;;1.52;0.20;;;;;;;29.04;21.12;102962.72;5013423;28;20050;-74
2022/08/09 09:20:09;;;;;;;2.67;0.30;;;;;;;28.89;21.48;102964.03;4993521;28;20660;-74
2022/08/09 09:22:56;;;;;;;0.77;0.30;;;;;;;28.23;22.78;102967.78;5023983;28;20041;-76
2022/08/09 09:25:44;;;;;;;1.73;0.20;;;;;;;27.65;23.77;102967.19;5016754;28;20334;-77
2022/08/09 09:28:11;;;;;;;1.60;0.38;;;;;;;26.66;24.51;102968.66;4998833;28;20137;-76
2022/08/09 09:30:55;;;;;;;2.08;0.90;;;;;;;25.30;26.11;102971.44;4996486;28;20033;-77
2022/08/09 09:33:30;;;;;;;1.02;0.30;;;;;;;24.57;27.21;102968.34;5007666;28;20298;-76
2022/08/09 09:35:58;;;;;;;0.68;0.22;;;;;;;24.53;25.71;102966.84;5011082;28;20041;-78
2022/08/09 09:38:45;;;;;;;1.75;0.15;;;;;;;24.57;26.47;102967.47;4994858;28;20784;-77
2022/08/09 09:41:26;;;;;;;0.57;0.25;;;;;;;25.04;25.84;102974.97;5015298;28;20747;-75
2022/08/09 09:43:56;;;;;;;1.83;0.38;;;;;;;25.48;25.45;102976.31;5004458;28;20091;-75
2022/08/09 09:46:30;;;;;;;0.70;0.32;;;;;;;25.18;25.79;102968.66;5010967;28;20048;-76
2022/08/09 09:48:56;;;;;;;2.25;0.38;;;;;;;25.73;25.69;102961.19;5013203;28;20069;-75
2022/08/09 09:51:22;;;;;;;1.40;0.20;;;;;;;25.12;26.21;102965.56;5016803;28;20056;-76
2022/08/09 09:54:10;;;;;;;1.17;0.40;;;;;;;25.35;25.63;102969.28;5014479;28;20065;-75
2022/08/09 09:56:39;;;;;;;2.70;0.35;;;;;;;25.26;27.00;102971.66;5025900;28;20033;-76
2022/08/09 09:59:09;;;;;;;2.17;0.65;;;;;;;25.37;26.50;102981.56;4994095;28;20036;-75
2022/08/09 10:01:36;;;;;;;1.05;0.30;;;;;;;25.42;27.09;102983.94;4984320;28;20037;-77
2022/08/09 10:04:02;;;;;;;0.75;0.38;;;;;;;25.38;25.58;102983.31;4985943;28;20051;-76
2022/08/09 10:06:38;;;;;;;1.27;0.20;;;;;;;25.17;25.85;102974.09;4984257;28;20434;-75
2022/08/09 10:09:04;;;;;;;0.43;0.15;;;;;;;25.20;25.82;102965.88;5004792;28;20045;-76
2022/08/09 10:11:31;;;;;;;0.82;0.30;;;;;;;25.45;24.91;102970.34;5034379;28;20040;-76
2022/08/09 10:13:57;;;;;;;1.58;0.20;;;;;;;25.28;25.50;102968.84;5036786;28;20930;-75
2022/08/09 10:16:29;;;;;;;0.40;0.20;;;;;;;24.68;26.85;102966.75;5018630;28;20021;-76
2022/08/09 10:19:01;;;;;;;0.52;0.20;;;;;;;24.76;28.06;102964.44;5024085;28;20044;-76
2022/08/09 10:21:26;;;;;;;0.70;0.20;;;;;;;25.24;25.73;102957.53;5014827;28;20045;-76
2022/08/09 10:23:53;;;;;;;1.85;0.45;;;;;;;24.74;26.67;102974.38;5018764;28;20063;-74
2022/08/09 10:26:21;;;;;;;1.58;0.30;;;;;;;25.19;25.64;102969.50;5003233;28;20083;-77
2022/08/09 10:28:47;;;;;;;0.70;0.20;;;;;;;25.12;25.32;102969.06;5014793;28;20541;-77
2022/08/09 10:31:13;;;;;;;2.30;0.35;;;;;;;25.59;25.72;102972.06;5030365;28;20029;-75
2022/08/09 10:33:40;;;;;;;1.20;0.10;;;;;;;25.09;25.44;102960.44;5014833;28;20538;-75
2022/08/09 10:36:08;;;;;;;1.20;0.10;;;;;;;25.04;25.47;102950.91;5027887;28;20041;-76
2022/08/09 10:38:35;;;;;;;1.27;0.75;;;;;;;24.97;26.48;102952.31;5034279;28;20522;-77
2022/08/09 10:41:01;;;;;;;0.80;0.13;;;;;;;25.14;25.67;102948.44;5031216;28;20048;-77
2022/08/09 10:43:28;;;;;;;1.27;0.30;;;;;;;25.45;25.78;102955.13;5028593;28;20090;-76
2022/08/09 10:45:54;;;;;;;1.02;0.38;;;;;;;25.55;25.72;102952.69;5017636;28;20775;-76
2022/08/09 10:48:39;;;;;;;1.20;0.30;;;;;;;25.19;25.65;102951.63;5019001;28;20041;-76
2022/08/09 10:51:17;;;;;;;0.20;0.10;;;;;;;25.09;26.81;102957.75;5014002;28;20037;-75
2022/08/09 10:53:50;;;;;;;0.88;0.30;;;;;;;25.50;25.20;102957.47;5025089;28;20041;-75
2022/08/09 10:56:27;;;;;;;0.35;0.10;;;;;;;25.78;25.16;102948.34;5028170;28;20048;-77
2022/08/09 10:58:54;;;;;;;5.55;1.63;;;;;;;26.15;25.37;102942.97;4994849;28;20099;-76
2022/08/09 11:01:32;;;;;;;0.60;0.30;;;;;;;25.93;25.40;102942.81;5019499;28;20511;-75
2022/08/09 11:04:22;;;;;;;1.77;0.20;;;;;;;25.08;25.82;102945.31;5007352;28;20057;-75
2022/08/09 11:07:09;;;;;;;4.15;0.40;;;;;;;25.89;24.80;102947.56;5008010;28;20049;-76
2022/08/09 11:09:37;;;;;;;1.95;0.50;;;;;;;26.26;24.77;102945.69;4986103;28;20042;-77
2022/08/09 11:12:13;;;;;;;0.47;0.20;;;;;;;26.14;25.01;102943.94;5017125;28;20053;-76
2022/08/09 11:14:49;;;;;;;1.10;0.28;;;;;;;26.10;25.01;102955.00;5001667;28;20030;-76
2022/08/09 11:17:15;;;;;;;0.98;0.30;;;;;;;25.68;25.30;102960.69;5012681;28;20094;-75
2022/08/09 11:19:53;;;;;;;0.75;0.20;;;;;;;26.05;25.57;102945.47;5008644;28;20125;-77
2022/08/09 11:22:19;;;;;;;0.68;0.25;;;;;;;25.85;25.69;102951.44;5011740;28;20037;-76
2022/08/09 11:25:07;;;;;;;3.40;0.30;;;;;;;26.14;24.62;102951.13;5007792;28;20033;-76
2022/08/09 11:27:36;;;;;;;0.68;0.20;;;;;;;25.87;25.33;102945.00;4996398;28;20058;-75
2022/08/09 11:30:04;;;;;;;1.95;0.20;;;;;;;25.44;25.91;102944.53;5014384;28;20041;-75
2022/08/09 11:32:38;;;;;;;1.80;0.25;;;;;;;26.01;25.34;102945.78;5008586;28;20045;-75